sensor_id;sensor_type;location;lat;lon;timestamp;P1;durP1;ratioP1;P2;durP2;ratioP2
2888;SDS011;1453;42.708;23.282;2022-10-15T00:00:47;26.13;;;16.77;;
2888;SDS011;1453;42.708;23.282;2022-10-15T00:03:13;26.93;;;20.23;;
2888;SDS011;1453;42.708;23.282;2022-10-15T00:05:39;15.37;;;10.83;;
2888;SDS011;1453;42.708;23.282;2022-10-15T00:08:06;11.30;;;7.60;;
2888;SDS011;1453;42.708;23.282;2022-10-15T00:10:34;9.27;;;6.77;;
2888;SDS011;1453;42.708;23.282;2022-10-15T00:13:00;7.63;;;6.67;;
2888;SDS011;1453;42.708;23.282;2022-10-15T00:15:28;10.17;;;7.47;;
2888;SDS011;1453;42.708;23.282;2022-10-15T00:17:54;9.30;;;6.60;;
2888;SDS011;1453;42.708;23.282;2022-10-15T00:20:20;10.50;;;6.40;;
2888;SDS011;1453;42.708;23.282;2022-10-15T00:22:46;9.23;;;6.20;;
2888;SDS011;1453;42.708;23.282;2022-10-15T00:25:12;7.37;;;5.63;;
2888;SDS011;1453;42.708;23.282;2022-10-15T00:27:38;8.83;;;6.40;;
2888;SDS011;1453;42.708;23.282;2022-10-15T00:30:04;7.97;;;5.70;;
2888;SDS011;1453;42.708;23.282;2022-10-15T00:32:31;9.40;;;6.97;;
2888;SDS011;1453;42.708;23.282;2022-10-15T00:34:58;9.53;;;6.50;;
2888;SDS011;1453;42.708;23.282;2022-10-15T00:37:24;8.77;;;6.97;;
2888;SDS011;1453;42.708;23.282;2022-10-15T00:39:49;6.97;;;6.13;;
2888;SDS011;1453;42.708;23.282;2022-10-15T00:42:15;15.33;;;7.67;;
2888;SDS011;1453;42.708;23.282;2022-10-15T00:47:37;8.33;;;6.57;;
2888;SDS011;1453;42.708;23.282;2022-10-15T00:55:33;9.83;;;7.50;;
2888;SDS011;1453;42.708;23.282;2022-10-15T00:58:07;9.97;;;6.90;;
2888;SDS011;1453;42.708;23.282;2022-10-15T01:00:51;9.97;;;8.33;;
2888;SDS011;1453;42.708;23.282;2022-10-15T01:03:19;10.70;;;8.10;;
2888;SDS011;1453;42.708;23.282;2022-10-15T01:05:46;8.47;;;6.63;;
2888;SDS011;1453;42.708;23.282;2022-10-15T01:08:15;8.40;;;6.40;;
2888;SDS011;1453;42.708;23.282;2022-10-15T01:13:53;10.43;;;7.70;;
2888;SDS011;1453;42.708;23.282;2022-10-15T01:16:32;10.27;;;6.70;;
2888;SDS011;1453;42.708;23.282;2022-10-15T01:19:11;7.47;;;6.20;;
2888;SDS011;1453;42.708;23.282;2022-10-15T01:37:07;11.13;;;6.07;;
2888;SDS011;1453;42.708;23.282;2022-10-15T01:39:52;9.47;;;6.10;;
2888;SDS011;1453;42.708;23.282;2022-10-15T01:42:27;8.50;;;6.07;;
2888;SDS011;1453;42.708;23.282;2022-10-15T01:44:59;9.10;;;6.40;;
2888;SDS011;1453;42.708;23.282;2022-10-15T01:47:34;9.00;;;6.30;;
2888;SDS011;1453;42.708;23.282;2022-10-15T01:50:24;8.23;;;6.37;;
2888;SDS011;1453;42.708;23.282;2022-10-15T01:52:51;6.30;;;5.63;;
2888;SDS011;1453;42.708;23.282;2022-10-15T01:55:20;10.20;;;6.60;;
2888;SDS011;1453;42.708;23.282;2022-10-15T01:57:48;7.70;;;6.60;;
2888;SDS011;1453;42.708;23.282;2022-10-15T02:00:15;8.00;;;6.53;;
2888;SDS011;1453;42.708;23.282;2022-10-15T02:02:41;7.57;;;6.20;;
2888;SDS011;1453;42.708;23.282;2022-10-15T02:05:12;7.63;;;6.83;;
2888;SDS011;1453;42.708;23.282;2022-10-15T02:07:46;9.00;;;6.53;;
2888;SDS011;1453;42.708;23.282;2022-10-15T02:10:53;8.03;;;6.10;;
2888;SDS011;1453;42.708;23.282;2022-10-15T02:19:12;8.30;;;6.00;;
2888;SDS011;1453;42.708;23.282;2022-10-15T02:22:37;6.60;;;5.97;;
2888;SDS011;1453;42.708;23.282;2022-10-15T02:25:08;6.87;;;6.27;;
2888;SDS011;1453;42.708;23.282;2022-10-15T02:27:39;11.20;;;7.03;;
2888;SDS011;1453;42.708;23.282;2022-10-15T02:30:08;7.30;;;6.20;;
2888;SDS011;1453;42.708;23.282;2022-10-15T02:32:36;8.63;;;6.70;;
2888;SDS011;1453;42.708;23.282;2022-10-15T02:35:04;8.43;;;6.73;;
2888;SDS011;1453;42.708;23.282;2022-10-15T02:37:33;9.17;;;6.57;;
2888;SDS011;1453;42.708;23.282;2022-10-15T02:40:01;7.10;;;6.40;;
2888;SDS011;1453;42.708;23.282;2022-10-15T02:42:27;14.83;;;9.67;;
2888;SDS011;1453;42.708;23.282;2022-10-15T02:44:53;12.70;;;9.30;;
2888;SDS011;1453;42.708;23.282;2022-10-15T02:47:19;10.50;;;8.20;;
2888;SDS011;1453;42.708;23.282;2022-10-15T02:49:44;31.90;;;21.37;;
2888;SDS011;1453;42.708;23.282;2022-10-15T02:52:10;12.13;;;9.77;;
2888;SDS011;1453;42.708;23.282;2022-10-15T02:54:36;11.00;;;7.37;;
2888;SDS011;1453;42.708;23.282;2022-10-15T02:57:02;10.97;;;5.87;;
2888;SDS011;1453;42.708;23.282;2022-10-15T02:59:28;7.37;;;6.23;;
2888;SDS011;1453;42.708;23.282;2022-10-15T03:01:53;9.10;;;6.40;;
2888;SDS011;1453;42.708;23.282;2022-10-15T03:04:19;11.93;;;6.00;;
2888;SDS011;1453;42.708;23.282;2022-10-15T03:06:45;10.07;;;6.50;;
2888;SDS011;1453;42.708;23.282;2022-10-15T03:09:11;8.73;;;6.90;;
2888;SDS011;1453;42.708;23.282;2022-10-15T03:11:37;10.57;;;7.20;;
2888;SDS011;1453;42.708;23.282;2022-10-15T03:14:03;8.33;;;7.07;;
2888;SDS011;1453;42.708;23.282;2022-10-15T03:16:29;11.97;;;7.10;;
2888;SDS011;1453;42.708;23.282;2022-10-15T03:18:55;8.10;;;6.20;;
2888;SDS011;1453;42.708;23.282;2022-10-15T03:21:21;9.50;;;6.93;;
2888;SDS011;1453;42.708;23.282;2022-10-15T03:23:46;8.50;;;6.87;;
2888;SDS011;1453;42.708;23.282;2022-10-15T03:26:12;10.30;;;7.30;;
2888;SDS011;1453;42.708;23.282;2022-10-15T03:28:39;8.83;;;7.20;;
2888;SDS011;1453;42.708;23.282;2022-10-15T03:31:04;9.30;;;7.13;;
2888;SDS011;1453;42.708;23.282;2022-10-15T03:33:30;10.20;;;7.50;;
2888;SDS011;1453;42.708;23.282;2022-10-15T03:35:56;9.03;;;6.73;;
2888;SDS011;1453;42.708;23.282;2022-10-15T03:38:22;8.20;;;6.60;;
2888;SDS011;1453;42.708;23.282;2022-10-15T03:40:48;13.83;;;7.50;;
2888;SDS011;1453;42.708;23.282;2022-10-15T03:43:13;11.10;;;8.33;;
2888;SDS011;1453;42.708;23.282;2022-10-15T03:45:39;8.13;;;7.30;;
2888;SDS011;1453;42.708;23.282;2022-10-15T03:48:05;8.47;;;7.67;;
2888;SDS011;1453;42.708;23.282;2022-10-15T03:50:31;10.00;;;8.60;;
2888;SDS011;1453;42.708;23.282;2022-10-15T03:52:57;10.57;;;7.87;;
2888;SDS011;1453;42.708;23.282;2022-10-15T03:55:23;9.07;;;7.63;;
2888;SDS011;1453;42.708;23.282;2022-10-15T03:57:48;10.97;;;7.53;;
2888;SDS011;1453;42.708;23.282;2022-10-15T04:00:14;8.07;;;7.20;;
2888;SDS011;1453;42.708;23.282;2022-10-15T04:02:40;9.47;;;7.43;;
2888;SDS011;1453;42.708;23.282;2022-10-15T04:05:06;9.40;;;7.97;;
2888;SDS011;1453;42.708;23.282;2022-10-15T04:07:32;10.30;;;7.73;;
2888;SDS011;1453;42.708;23.282;2022-10-15T04:09:58;13.37;;;7.67;;
2888;SDS011;1453;42.708;23.282;2022-10-15T04:12:24;10.37;;;7.87;;
2888;SDS011;1453;42.708;23.282;2022-10-15T04:14:50;10.97;;;8.40;;
2888;SDS011;1453;42.708;23.282;2022-10-15T04:17:15;10.20;;;8.20;;
2888;SDS011;1453;42.708;23.282;2022-10-15T04:19:41;10.23;;;8.60;;
2888;SDS011;1453;42.708;23.282;2022-10-15T04:22:07;10.90;;;8.10;;
2888;SDS011;1453;42.708;23.282;2022-10-15T04:24:33;9.73;;;8.40;;
2888;SDS011;1453;42.708;23.282;2022-10-15T04:26:58;13.43;;;8.53;;
2888;SDS011;1453;42.708;23.282;2022-10-15T04:29:24;9.57;;;7.53;;
2888;SDS011;1453;42.708;23.282;2022-10-15T04:31:50;10.67;;;8.30;;
2888;SDS011;1453;42.708;23.282;2022-10-15T04:34:16;12.97;;;7.60;;
2888;SDS011;1453;42.708;23.282;2022-10-15T04:36:42;11.10;;;8.33;;
2888;SDS011;1453;42.708;23.282;2022-10-15T04:39:07;10.97;;;8.87;;
2888;SDS011;1453;42.708;23.282;2022-10-15T04:41:33;15.60;;;8.80;;
2888;SDS011;1453;42.708;23.282;2022-10-15T04:43:59;11.17;;;8.10;;
2888;SDS011;1453;42.708;23.282;2022-10-15T04:46:25;10.70;;;8.50;;
2888;SDS011;1453;42.708;23.282;2022-10-15T04:48:51;10.00;;;8.53;;
2888;SDS011;1453;42.708;23.282;2022-10-15T04:51:22;10.73;;;8.33;;
2888;SDS011;1453;42.708;23.282;2022-10-15T04:53:49;11.00;;;7.53;;
2888;SDS011;1453;42.708;23.282;2022-10-15T04:56:16;14.50;;;8.40;;
2888;SDS011;1453;42.708;23.282;2022-10-15T04:58:45;19.17;;;8.47;;
2888;SDS011;1453;42.708;23.282;2022-10-15T05:01:13;12.93;;;8.87;;
2888;SDS011;1453;42.708;23.282;2022-10-15T05:03:43;11.10;;;8.70;;
2888;SDS011;1453;42.708;23.282;2022-10-15T05:06:12;10.20;;;8.60;;
2888;SDS011;1453;42.708;23.282;2022-10-15T05:08:44;13.20;;;8.87;;
2888;SDS011;1453;42.708;23.282;2022-10-15T05:11:16;12.40;;;8.10;;
2888;SDS011;1453;42.708;23.282;2022-10-15T05:13:51;10.87;;;9.20;;
2888;SDS011;1453;42.708;23.282;2022-10-15T05:16:20;19.63;;;9.37;;
2888;SDS011;1453;42.708;23.282;2022-10-15T05:18:54;11.57;;;8.57;;
2888;SDS011;1453;42.708;23.282;2022-10-15T05:21:23;15.20;;;8.80;;
2888;SDS011;1453;42.708;23.282;2022-10-15T05:23:49;13.20;;;8.43;;
2888;SDS011;1453;42.708;23.282;2022-10-15T05:26:19;9.83;;;7.70;;
2888;SDS011;1453;42.708;23.282;2022-10-15T05:28:48;10.60;;;7.63;;
2888;SDS011;1453;42.708;23.282;2022-10-15T05:31:19;11.40;;;8.00;;
2888;SDS011;1453;42.708;23.282;2022-10-15T05:33:47;11.40;;;7.23;;
2888;SDS011;1453;42.708;23.282;2022-10-15T05:38:51;12.80;;;8.83;;
2888;SDS011;1453;42.708;23.282;2022-10-15T05:41:23;13.70;;;8.00;;
2888;SDS011;1453;42.708;23.282;2022-10-15T05:43:50;17.13;;;7.17;;
2888;SDS011;1453;42.708;23.282;2022-10-15T05:46:19;10.80;;;7.80;;
2888;SDS011;1453;42.708;23.282;2022-10-15T05:48:49;8.67;;;7.00;;
2888;SDS011;1453;42.708;23.282;2022-10-15T05:51:17;10.73;;;8.60;;
2888;SDS011;1453;42.708;23.282;2022-10-15T05:53:43;10.40;;;7.57;;
2888;SDS011;1453;42.708;23.282;2022-10-15T05:56:10;11.10;;;8.30;;
2888;SDS011;1453;42.708;23.282;2022-10-15T05:58:38;10.87;;;7.10;;
2888;SDS011;1453;42.708;23.282;2022-10-15T06:01:05;16.07;;;8.13;;
2888;SDS011;1453;42.708;23.282;2022-10-15T06:03:34;10.97;;;7.60;;
2888;SDS011;1453;42.708;23.282;2022-10-15T06:06:00;9.80;;;7.77;;
2888;SDS011;1453;42.708;23.282;2022-10-15T06:08:27;12.77;;;7.13;;
2888;SDS011;1453;42.708;23.282;2022-10-15T06:10:54;11.53;;;7.70;;
2888;SDS011;1453;42.708;23.282;2022-10-15T06:13:20;13.77;;;7.50;;
2888;SDS011;1453;42.708;23.282;2022-10-15T06:15:47;13.07;;;8.10;;
2888;SDS011;1453;42.708;23.282;2022-10-15T06:18:13;10.57;;;7.20;;
2888;SDS011;1453;42.708;23.282;2022-10-15T06:20:43;11.90;;;7.97;;
2888;SDS011;1453;42.708;23.282;2022-10-15T06:23:15;8.60;;;6.57;;
2888;SDS011;1453;42.708;23.282;2022-10-15T06:25:41;10.87;;;7.10;;
2888;SDS011;1453;42.708;23.282;2022-10-15T06:28:07;10.20;;;6.93;;
2888;SDS011;1453;42.708;23.282;2022-10-15T06:30:33;11.67;;;6.50;;
2888;SDS011;1453;42.708;23.282;2022-10-15T06:32:59;11.10;;;6.97;;
2888;SDS011;1453;42.708;23.282;2022-10-15T06:35:25;10.57;;;7.10;;
2888;SDS011;1453;42.708;23.282;2022-10-15T06:37:54;11.80;;;8.17;;
2888;SDS011;1453;42.708;23.282;2022-10-15T06:40:20;14.53;;;8.43;;
2888;SDS011;1453;42.708;23.282;2022-10-15T06:42:46;11.20;;;8.43;;
2888;SDS011;1453;42.708;23.282;2022-10-15T06:45:12;11.87;;;8.60;;
2888;SDS011;1453;42.708;23.282;2022-10-15T06:47:41;14.80;;;8.63;;
2888;SDS011;1453;42.708;23.282;2022-10-15T06:50:07;13.13;;;7.93;;
2888;SDS011;1453;42.708;23.282;2022-10-15T06:52:33;13.27;;;8.70;;
2888;SDS011;1453;42.708;23.282;2022-10-15T06:54:59;15.60;;;8.33;;
2888;SDS011;1453;42.708;23.282;2022-10-15T06:57:26;17.23;;;9.60;;
2888;SDS011;1453;42.708;23.282;2022-10-15T06:59:52;11.20;;;7.33;;
2888;SDS011;1453;42.708;23.282;2022-10-15T07:02:19;16.30;;;10.47;;
2888;SDS011;1453;42.708;23.282;2022-10-15T07:04:45;10.40;;;7.97;;
2888;SDS011;1453;42.708;23.282;2022-10-15T07:07:11;9.10;;;7.00;;
2888;SDS011;1453;42.708;23.282;2022-10-15T07:09:37;18.63;;;8.10;;
2888;SDS011;1453;42.708;23.282;2022-10-15T07:12:04;8.77;;;7.50;;
2888;SDS011;1453;42.708;23.282;2022-10-15T07:14:30;15.30;;;8.37;;
2888;SDS011;1453;42.708;23.282;2022-10-15T07:16:56;11.53;;;8.40;;
2888;SDS011;1453;42.708;23.282;2022-10-15T07:19:23;14.60;;;7.63;;
2888;SDS011;1453;42.708;23.282;2022-10-15T07:21:49;10.00;;;7.43;;
2888;SDS011;1453;42.708;23.282;2022-10-15T07:24:15;11.67;;;7.37;;
2888;SDS011;1453;42.708;23.282;2022-10-15T07:26:41;10.70;;;7.13;;
2888;SDS011;1453;42.708;23.282;2022-10-15T07:29:06;9.40;;;6.73;;
2888;SDS011;1453;42.708;23.282;2022-10-15T07:31:33;12.90;;;7.60;;
2888;SDS011;1453;42.708;23.282;2022-10-15T07:33:59;8.20;;;6.33;;
2888;SDS011;1453;42.708;23.282;2022-10-15T07:36:25;9.37;;;6.60;;
2888;SDS011;1453;42.708;23.282;2022-10-15T07:38:51;6.33;;;5.70;;
2888;SDS011;1453;42.708;23.282;2022-10-15T07:41:17;7.90;;;6.03;;
2888;SDS011;1453;42.708;23.282;2022-10-15T07:43:42;6.70;;;5.40;;
2888;SDS011;1453;42.708;23.282;2022-10-15T07:46:08;6.67;;;5.90;;
2888;SDS011;1453;42.708;23.282;2022-10-15T07:48:34;7.60;;;5.60;;
2888;SDS011;1453;42.708;23.282;2022-10-15T07:51:02;7.13;;;5.97;;
2888;SDS011;1453;42.708;23.282;2022-10-15T07:53:30;8.23;;;6.90;;
2888;SDS011;1453;42.708;23.282;2022-10-15T07:55:58;9.93;;;6.87;;
2888;SDS011;1453;42.708;23.282;2022-10-15T07:58:24;7.73;;;6.23;;
2888;SDS011;1453;42.708;23.282;2022-10-15T08:00:51;7.87;;;5.60;;
2888;SDS011;1453;42.708;23.282;2022-10-15T08:03:16;8.37;;;6.00;;
2888;SDS011;1453;42.708;23.282;2022-10-15T08:05:42;7.30;;;5.80;;
2888;SDS011;1453;42.708;23.282;2022-10-15T08:08:08;10.93;;;6.80;;
2888;SDS011;1453;42.708;23.282;2022-10-15T08:10:34;8.87;;;6.17;;
2888;SDS011;1453;42.708;23.282;2022-10-15T08:13:01;10.63;;;6.27;;
2888;SDS011;1453;42.708;23.282;2022-10-15T08:15:27;8.13;;;6.30;;
2888;SDS011;1453;42.708;23.282;2022-10-15T08:17:52;9.73;;;6.20;;
2888;SDS011;1453;42.708;23.282;2022-10-15T08:20:18;9.67;;;6.73;;
2888;SDS011;1453;42.708;23.282;2022-10-15T08:22:44;7.30;;;6.23;;
2888;SDS011;1453;42.708;23.282;2022-10-15T08:25:10;7.23;;;5.80;;
2888;SDS011;1453;42.708;23.282;2022-10-15T08:27:36;5.80;;;5.17;;
2888;SDS011;1453;42.708;23.282;2022-10-15T08:30:01;10.47;;;6.27;;
2888;SDS011;1453;42.708;23.282;2022-10-15T08:32:28;6.80;;;5.73;;
2888;SDS011;1453;42.708;23.282;2022-10-15T08:34:53;7.53;;;6.30;;
2888;SDS011;1453;42.708;23.282;2022-10-15T08:37:19;7.17;;;5.40;;
2888;SDS011;1453;42.708;23.282;2022-10-15T08:39:45;6.90;;;5.40;;
2888;SDS011;1453;42.708;23.282;2022-10-15T08:42:16;8.00;;;6.17;;
2888;SDS011;1453;42.708;23.282;2022-10-15T08:44:57;7.27;;;6.33;;
2888;SDS011;1453;42.708;23.282;2022-10-15T08:47:37;6.47;;;5.83;;
2888;SDS011;1453;42.708;23.282;2022-10-15T08:52:49;8.37;;;5.80;;
2888;SDS011;1453;42.708;23.282;2022-10-15T08:55:17;7.80;;;6.23;;
2888;SDS011;1453;42.708;23.282;2022-10-15T09:03:23;6.57;;;5.90;;
2888;SDS011;1453;42.708;23.282;2022-10-15T09:06:16;7.03;;;5.70;;
2888;SDS011;1453;42.708;23.282;2022-10-15T09:11:58;6.97;;;5.90;;
2888;SDS011;1453;42.708;23.282;2022-10-15T09:14:42;7.30;;;6.57;;
2888;SDS011;1453;42.708;23.282;2022-10-15T09:17:17;8.77;;;6.33;;
2888;SDS011;1453;42.708;23.282;2022-10-15T09:19:48;6.63;;;5.93;;
2888;SDS011;1453;42.708;23.282;2022-10-15T09:22:22;8.30;;;6.00;;
2888;SDS011;1453;42.708;23.282;2022-10-15T09:24:55;7.37;;;5.90;;
2888;SDS011;1453;42.708;23.282;2022-10-15T09:27:34;8.20;;;6.27;;
2888;SDS011;1453;42.708;23.282;2022-10-15T09:30:22;7.47;;;6.50;;
2888;SDS011;1453;42.708;23.282;2022-10-15T09:35:42;11.87;;;5.97;;
2888;SDS011;1453;42.708;23.282;2022-10-15T09:38:22;9.50;;;6.50;;
2888;SDS011;1453;42.708;23.282;2022-10-15T09:44:03;6.73;;;6.00;;
2888;SDS011;1453;42.708;23.282;2022-10-15T09:46:41;6.20;;;5.53;;
2888;SDS011;1453;42.708;23.282;2022-10-15T09:49:13;6.77;;;6.07;;
2888;SDS011;1453;42.708;23.282;2022-10-15T09:57:34;7.70;;;5.73;;
2888;SDS011;1453;42.708;23.282;2022-10-15T10:00:04;9.37;;;6.90;;
2888;SDS011;1453;42.708;23.282;2022-10-15T10:02:34;7.53;;;5.50;;
2888;SDS011;1453;42.708;23.282;2022-10-15T10:05:23;8.90;;;6.00;;
2888;SDS011;1453;42.708;23.282;2022-10-15T10:10:57;6.40;;;5.80;;
2888;SDS011;1453;42.708;23.282;2022-10-15T10:13:30;7.67;;;5.57;;
2888;SDS011;1453;42.708;23.282;2022-10-15T10:16:08;8.60;;;6.70;;
2888;SDS011;1453;42.708;23.282;2022-10-15T10:18:36;7.70;;;6.73;;
2888;SDS011;1453;42.708;23.282;2022-10-15T10:21:04;9.80;;;8.80;;
2888;SDS011;1453;42.708;23.282;2022-10-15T10:27:02;7.00;;;6.40;;
2888;SDS011;1453;42.708;23.282;2022-10-15T10:29:38;9.73;;;6.30;;
2888;SDS011;1453;42.708;23.282;2022-10-15T10:32:09;8.10;;;6.60;;
2888;SDS011;1453;42.708;23.282;2022-10-15T10:34:47;7.77;;;5.60;;
2888;SDS011;1453;42.708;23.282;2022-10-15T10:37:14;6.90;;;5.50;;
2888;SDS011;1453;42.708;23.282;2022-10-15T10:39:39;6.17;;;5.57;;
2888;SDS011;1453;42.708;23.282;2022-10-15T10:44:41;6.80;;;6.07;;
2888;SDS011;1453;42.708;23.282;2022-10-15T10:47:17;7.60;;;5.80;;
2888;SDS011;1453;42.708;23.282;2022-10-15T10:52:31;7.07;;;6.40;;
2888;SDS011;1453;42.708;23.282;2022-10-15T10:55:10;8.67;;;5.67;;
2888;SDS011;1453;42.708;23.282;2022-10-15T11:00:40;5.60;;;5.07;;
2888;SDS011;1453;42.708;23.282;2022-10-15T11:03:15;6.40;;;4.67;;
2888;SDS011;1453;42.708;23.282;2022-10-15T11:06:21;7.17;;;5.17;;
2888;SDS011;1453;42.708;23.282;2022-10-15T11:29:58;6.47;;;4.77;;
2888;SDS011;1453;42.708;23.282;2022-10-15T11:32:56;4.63;;;4.13;;
2888;SDS011;1453;42.708;23.282;2022-10-15T11:35:25;5.60;;;4.67;;
2888;SDS011;1453;42.708;23.282;2022-10-15T11:55:09;6.13;;;4.80;;
2888;SDS011;1453;42.708;23.282;2022-10-15T11:58:09;7.80;;;5.17;;
2888;SDS011;1453;42.708;23.282;2022-10-15T12:00:52;4.47;;;4.07;;
2888;SDS011;1453;42.708;23.282;2022-10-15T12:03:25;5.73;;;4.63;;
2888;SDS011;1453;42.708;23.282;2022-10-15T12:05:54;4.73;;;4.00;;
2888;SDS011;1453;42.708;23.282;2022-10-15T12:08:29;11.33;;;7.93;;
2888;SDS011;1453;42.708;23.282;2022-10-15T12:17:10;4.40;;;4.00;;
2888;SDS011;1453;42.708;23.282;2022-10-15T12:19:59;6.57;;;5.77;;
2888;SDS011;1453;42.708;23.282;2022-10-15T12:30:32;5.70;;;4.23;;
2888;SDS011;1453;42.708;23.282;2022-10-15T12:33:01;5.30;;;3.90;;
2888;SDS011;1453;42.708;23.282;2022-10-15T12:35:48;6.83;;;4.20;;
2888;SDS011;1453;42.708;23.282;2022-10-15T12:38:26;8.13;;;6.00;;
2888;SDS011;1453;42.708;23.282;2022-10-15T12:40:57;6.70;;;4.67;;
2888;SDS011;1453;42.708;23.282;2022-10-15T12:43:30;5.37;;;4.00;;
2888;SDS011;1453;42.708;23.282;2022-10-15T12:46:01;7.63;;;6.23;;
2888;SDS011;1453;42.708;23.282;2022-10-15T12:48:31;4.90;;;4.03;;
2888;SDS011;1453;42.708;23.282;2022-10-15T12:53:46;10.47;;;5.00;;
2888;SDS011;1453;42.708;23.282;2022-10-15T12:58:42;4.83;;;3.87;;
2888;SDS011;1453;42.708;23.282;2022-10-15T13:03:40;6.93;;;4.50;;
2888;SDS011;1453;42.708;23.282;2022-10-15T13:11:24;7.80;;;5.67;;
2888;SDS011;1453;42.708;23.282;2022-10-15T13:13:55;5.20;;;3.90;;
2888;SDS011;1453;42.708;23.282;2022-10-15T13:16:27;4.77;;;3.90;;
2888;SDS011;1453;42.708;23.282;2022-10-15T13:18:54;5.47;;;3.33;;
2888;SDS011;1453;42.708;23.282;2022-10-15T13:21:21;6.10;;;5.50;;
2888;SDS011;1453;42.708;23.282;2022-10-15T13:24:21;6.10;;;4.87;;
2888;SDS011;1453;42.708;23.282;2022-10-15T13:26:50;10.00;;;4.10;;
2888;SDS011;1453;42.708;23.282;2022-10-15T13:29:21;7.70;;;3.83;;
2888;SDS011;1453;42.708;23.282;2022-10-15T13:31:50;5.03;;;4.53;;
2888;SDS011;1453;42.708;23.282;2022-10-15T13:34:29;8.13;;;5.10;;
2888;SDS011;1453;42.708;23.282;2022-10-15T13:37:00;5.20;;;4.40;;
2888;SDS011;1453;42.708;23.282;2022-10-15T13:44:55;6.10;;;4.03;;
2888;SDS011;1453;42.708;23.282;2022-10-15T13:47:55;4.63;;;3.93;;
2888;SDS011;1453;42.708;23.282;2022-10-15T13:55:44;8.00;;;4.17;;
2888;SDS011;1453;42.708;23.282;2022-10-15T13:58:20;7.47;;;5.10;;
2888;SDS011;1453;42.708;23.282;2022-10-15T14:00:54;4.57;;;3.80;;
2888;SDS011;1453;42.708;23.282;2022-10-15T14:06:26;4.23;;;3.60;;
2888;SDS011;1453;42.708;23.282;2022-10-15T14:08:54;9.70;;;3.87;;
2888;SDS011;1453;42.708;23.282;2022-10-15T14:11:24;3.23;;;2.90;;
2888;SDS011;1453;42.708;23.282;2022-10-15T14:13:52;5.00;;;3.80;;
2888;SDS011;1453;42.708;23.282;2022-10-15T14:19:07;4.30;;;3.90;;
2888;SDS011;1453;42.708;23.282;2022-10-15T14:21:36;7.87;;;4.07;;
2888;SDS011;1453;42.708;23.282;2022-10-15T14:24:14;8.77;;;4.03;;
2888;SDS011;1453;42.708;23.282;2022-10-15T14:26:52;5.17;;;3.83;;
2888;SDS011;1453;42.708;23.282;2022-10-15T14:29:19;10.73;;;4.10;;
2888;SDS011;1453;42.708;23.282;2022-10-15T14:31:51;9.93;;;4.10;;
2888;SDS011;1453;42.708;23.282;2022-10-15T14:34:25;6.60;;;4.23;;
2888;SDS011;1453;42.708;23.282;2022-10-15T14:37:25;7.77;;;4.07;;
2888;SDS011;1453;42.708;23.282;2022-10-15T14:45:25;5.40;;;3.80;;
2888;SDS011;1453;42.708;23.282;2022-10-15T14:47:53;4.40;;;3.47;;
2888;SDS011;1453;42.708;23.282;2022-10-15T14:50:24;4.27;;;3.40;;
2888;SDS011;1453;42.708;23.282;2022-10-15T14:52:58;4.90;;;3.80;;
2888;SDS011;1453;42.708;23.282;2022-10-15T14:55:32;5.47;;;3.50;;
2888;SDS011;1453;42.708;23.282;2022-10-15T14:58:08;9.87;;;3.93;;
2888;SDS011;1453;42.708;23.282;2022-10-15T15:00:42;4.77;;;3.23;;
2888;SDS011;1453;42.708;23.282;2022-10-15T15:03:20;8.60;;;6.80;;
2888;SDS011;1453;42.708;23.282;2022-10-15T15:05:52;7.43;;;4.80;;
2888;SDS011;1453;42.708;23.282;2022-10-15T15:08:20;23.33;;;18.37;;
2888;SDS011;1453;42.708;23.282;2022-10-15T15:10:47;8.70;;;6.93;;
2888;SDS011;1453;42.708;23.282;2022-10-15T15:13:19;6.53;;;4.23;;
2888;SDS011;1453;42.708;23.282;2022-10-15T15:15:50;4.40;;;3.57;;
2888;SDS011;1453;42.708;23.282;2022-10-15T15:18:17;6.43;;;3.77;;
2888;SDS011;1453;42.708;23.282;2022-10-15T15:20:43;6.60;;;4.27;;
2888;SDS011;1453;42.708;23.282;2022-10-15T15:23:19;9.50;;;4.57;;
2888;SDS011;1453;42.708;23.282;2022-10-15T15:25:48;4.60;;;4.00;;
2888;SDS011;1453;42.708;23.282;2022-10-15T15:28:17;4.43;;;3.77;;
2888;SDS011;1453;42.708;23.282;2022-10-15T15:30:45;9.83;;;5.07;;
2888;SDS011;1453;42.708;23.282;2022-10-15T15:33:21;6.27;;;4.67;;
2888;SDS011;1453;42.708;23.282;2022-10-15T15:38:16;8.20;;;5.57;;
2888;SDS011;1453;42.708;23.282;2022-10-15T15:40:43;6.63;;;4.80;;
2888;SDS011;1453;42.708;23.282;2022-10-15T15:43:11;8.07;;;4.83;;
2888;SDS011;1453;42.708;23.282;2022-10-15T15:45:39;5.83;;;4.50;;
2888;SDS011;1453;42.708;23.282;2022-10-15T15:48:05;15.83;;;4.60;;
2888;SDS011;1453;42.708;23.282;2022-10-15T15:50:31;8.10;;;5.77;;
2888;SDS011;1453;42.708;23.282;2022-10-15T15:52:57;11.80;;;5.10;;
2888;SDS011;1453;42.708;23.282;2022-10-15T15:55:23;7.67;;;5.63;;
2888;SDS011;1453;42.708;23.282;2022-10-15T15:57:49;6.80;;;4.63;;
2888;SDS011;1453;42.708;23.282;2022-10-15T16:00:15;10.80;;;7.97;;
2888;SDS011;1453;42.708;23.282;2022-10-15T16:02:41;5.30;;;4.20;;
2888;SDS011;1453;42.708;23.282;2022-10-15T16:05:08;12.47;;;8.87;;
2888;SDS011;1453;42.708;23.282;2022-10-15T16:07:38;12.13;;;8.67;;
2888;SDS011;1453;42.708;23.282;2022-10-15T16:10:04;6.87;;;5.87;;
2888;SDS011;1453;42.708;23.282;2022-10-15T16:12:33;13.47;;;6.97;;
2888;SDS011;1453;42.708;23.282;2022-10-15T16:14:59;7.17;;;5.00;;
2888;SDS011;1453;42.708;23.282;2022-10-15T16:17:25;9.83;;;6.10;;
2888;SDS011;1453;42.708;23.282;2022-10-15T16:19:51;7.70;;;3.87;;
2888;SDS011;1453;42.708;23.282;2022-10-15T16:22:17;7.47;;;4.33;;
2888;SDS011;1453;42.708;23.282;2022-10-15T16:24:43;6.40;;;4.10;;
2888;SDS011;1453;42.708;23.282;2022-10-15T16:27:09;7.97;;;6.70;;
2888;SDS011;1453;42.708;23.282;2022-10-15T16:29:34;15.20;;;11.53;;
2888;SDS011;1453;42.708;23.282;2022-10-15T16:32:00;12.50;;;6.17;;
2888;SDS011;1453;42.708;23.282;2022-10-15T16:34:26;9.37;;;8.37;;
2888;SDS011;1453;42.708;23.282;2022-10-15T16:36:52;9.30;;;5.37;;
2888;SDS011;1453;42.708;23.282;2022-10-15T16:39:18;10.17;;;6.90;;
2888;SDS011;1453;42.708;23.282;2022-10-15T16:41:44;7.10;;;5.37;;
2888;SDS011;1453;42.708;23.282;2022-10-15T16:44:10;12.40;;;8.63;;
2888;SDS011;1453;42.708;23.282;2022-10-15T16:46:35;12.30;;;8.97;;
2888;SDS011;1453;42.708;23.282;2022-10-15T16:49:01;15.03;;;6.30;;
2888;SDS011;1453;42.708;23.282;2022-10-15T16:51:27;8.47;;;5.90;;
2888;SDS011;1453;42.708;23.282;2022-10-15T16:53:53;11.70;;;6.87;;
2888;SDS011;1453;42.708;23.282;2022-10-15T16:56:21;7.73;;;5.30;;
2888;SDS011;1453;42.708;23.282;2022-10-15T16:58:52;11.57;;;6.40;;
2888;SDS011;1453;42.708;23.282;2022-10-15T17:01:21;10.80;;;5.47;;
2888;SDS011;1453;42.708;23.282;2022-10-15T17:03:50;9.80;;;5.00;;
2888;SDS011;1453;42.708;23.282;2022-10-15T17:06:20;7.53;;;5.20;;
2888;SDS011;1453;42.708;23.282;2022-10-15T17:08:52;12.53;;;7.43;;
2888;SDS011;1453;42.708;23.282;2022-10-15T17:13:49;15.63;;;9.33;;
2888;SDS011;1453;42.708;23.282;2022-10-15T17:16:22;9.90;;;6.93;;
2888;SDS011;1453;42.708;23.282;2022-10-15T17:18:51;10.53;;;7.47;;
2888;SDS011;1453;42.708;23.282;2022-10-15T17:21:19;8.33;;;5.70;;
2888;SDS011;1453;42.708;23.282;2022-10-15T17:23:49;10.30;;;5.77;;
2888;SDS011;1453;42.708;23.282;2022-10-15T17:26:17;6.53;;;5.43;;
2888;SDS011;1453;42.708;23.282;2022-10-15T17:28:47;9.20;;;6.33;;
2888;SDS011;1453;42.708;23.282;2022-10-15T17:31:15;8.57;;;6.43;;
2888;SDS011;1453;42.708;23.282;2022-10-15T17:33:43;7.70;;;6.03;;
2888;SDS011;1453;42.708;23.282;2022-10-15T17:36:11;18.03;;;11.87;;
2888;SDS011;1453;42.708;23.282;2022-10-15T17:38:43;20.77;;;11.43;;
2888;SDS011;1453;42.708;23.282;2022-10-15T17:43:44;13.93;;;7.90;;
2888;SDS011;1453;42.708;23.282;2022-10-15T17:46:11;14.23;;;10.40;;
2888;SDS011;1453;42.708;23.282;2022-10-15T17:48:44;27.23;;;14.57;;
2888;SDS011;1453;42.708;23.282;2022-10-15T17:51:11;21.70;;;13.60;;
2888;SDS011;1453;42.708;23.282;2022-10-15T17:53:40;13.33;;;9.70;;
2888;SDS011;1453;42.708;23.282;2022-10-15T17:58:44;14.13;;;9.67;;
2888;SDS011;1453;42.708;23.282;2022-10-15T18:01:11;24.87;;;15.80;;